Silver Lakes, California
Current Conditions -  °F | °C
As of 2:55 AM on Sunday 23 Nov 2014 (Local Time) from KVCV Reporting Station
Clear Clear  
Wind Chill: 50°   Ceiling: Unl
Heat Index: 50°   Visibility: 10mi
Dew Point: 43°   Wind: 17mph
Humidity: 76%   Direction: 260°W
Pressure: 30.11"   Gusts: 25mph
Location:  34.8027°N, 117.361°W
Report Text: KVCV 231055Z AUTO 26015G22KT 10SM CLR 10/06 A3011 RMK AO2
Loading
Personal Weather Stations






























Interactive Weather Map New forecast layout! Learn more

10-Day Weather Forecast

Advertisements
Track Severe Weather on mobile